Time,TemperatureF,DewpointF,PressureIn,WindDirection,WindDirectionDegrees,WindSpeedMPH,WindSpeedGustMPH,Humidity,HourlyPrecipIn,Conditions,Clouds,dailyrainin,SoftwareType,DateUTC
2013-08-07 00:03:00,58.5,54.3,29.98,West,270,0.0,0.0,86,0.00,,,0.00,pywws,2013-08-06 14:03:00,
2013-08-07 00:14:00,58.3,54.1,29.98,SW,225,0.0,0.0,86,0.00,,,0.00,pywws,2013-08-06 14:14:00,
2013-08-07 00:24:00,58.1,53.9,29.98,SW,225,0.0,0.0,86,0.00,,,0.00,pywws,2013-08-06 14:24:00,
2013-08-07 00:34:00,57.7,53.6,29.97,West,270,0.0,0.0,86,0.00,,,0.00,pywws,2013-08-06 14:34:00,
2013-08-07 00:44:00,57.7,53.9,29.97,SE,135,0.0,0.0,87,0.00,,,0.00,pywws,2013-08-06 14:44:00,
2013-08-07 00:54:00,57.7,53.9,29.97,NE,45,0.0,0.0,87,0.00,,,0.00,pywws,2013-08-06 14:54:00,
2013-08-07 01:03:00,57.9,54.1,29.97,South,180,0.0,0.0,87,0.00,,,0.00,pywws,2013-08-06 15:03:00,
2013-08-07 01:14:00,57.9,53.8,29.97,SW,225,0.0,0.0,86,0.00,,,0.00,pywws,2013-08-06 15:14:00,
2013-08-07 01:24:00,57.7,53.6,29.96,South,180,0.0,0.0,86,0.00,,,0.00,pywws,2013-08-06 15:24:00,
2013-08-07 01:34:00,57.6,53.7,29.96,West,270,0.0,0.0,87,0.00,,,0.00,pywws,2013-08-06 15:34:00,
2013-08-07 01:44:00,57.4,53.5,29.96,NE,45,0.0,0.0,87,0.00,,,0.00,pywws,2013-08-06 15:44:00,
2013-08-07 01:54:00,57.2,53.7,29.96,West,270,0.0,0.0,88,0.00,,,0.00,pywws,2013-08-06 15:54:00,
2013-08-07 02:03:00,57.0,54.1,29.96,SW,225,0.7,1.6,90,0.00,,,0.00,pywws,2013-08-06 16:03:00,
2013-08-07 02:14:00,57.0,54.1,29.96,West,270,0.7,1.6,90,0.00,,,0.00,pywws,2013-08-06 16:14:00,
2013-08-07 02:24:00,56.8,54.2,29.95,SW,225,0.7,1.6,91,0.00,,,0.00,pywws,2013-08-06 16:24:00,
2013-08-07 02:34:00,56.7,54.1,29.94,NE,45,0.0,0.7,91,0.00,,,0.00,pywws,2013-08-06 16:34:00,
2013-08-07 02:44:00,56.7,54.1,29.94,SW,225,0.0,0.7,91,0.00,,,0.00,pywws,2013-08-06 16:44:00,
2013-08-07 02:54:00,56.7,54.1,29.94,SW,225,0.0,0.0,91,0.00,,,0.00,pywws,2013-08-06 16:54:00,
2013-08-07 03:03:00,56.3,54.0,29.94,West,270,0.7,1.6,92,0.00,,,0.00,pywws,2013-08-06 17:03:00,
2013-08-07 03:14:00,56.5,54.2,29.95,East,90,0.0,0.0,92,0.00,,,0.00,pywws,2013-08-06 17:14:00,
2013-08-07 03:24:00,56.5,54.2,29.94,West,270,0.0,0.7,92,0.00,,,0.00,pywws,2013-08-06 17:24:00,
2013-08-07 03:34:00,56.3,54.0,29.94,West,270,0.0,0.0,92,0.00,,,0.00,pywws,2013-08-06 17:34:00,
2013-08-07 03:35:00,56.3,54.0,29.95,West,270,0.0,0.7,92,0.00,,,0.00,pywws,2013-08-06 17:35:00,
2013-08-07 03:44:00,56.3,54.0,29.94,SW,225,0.0,0.0,92,0.00,,,0.00,pywws,2013-08-06 17:44:00,
2013-08-07 03:54:00,56.5,54.5,29.94,West,270,0.7,1.6,93,0.00,,,0.00,pywws,2013-08-06 17:54:00,
2013-08-07 04:03:00,56.3,54.3,29.94,NE,45,0.0,0.7,93,0.00,,,0.00,pywws,2013-08-06 18:03:00,
2013-08-07 04:14:00,56.3,54.3,29.95,SW,225,0.0,0.0,93,0.00,,,0.00,pywws,2013-08-06 18:14:00,
2013-08-07 04:24:00,55.9,53.9,29.95,SW,225,0.0,0.0,93,0.00,,,0.00,pywws,2013-08-06 18:24:00,
2013-08-07 04:34:00,55.9,53.9,29.95,SW,225,0.0,0.0,93,0.00,,,0.00,pywws,2013-08-06 18:34:00,
2013-08-07 04:44:00,56.1,54.4,29.95,SW,225,0.0,0.0,94,0.00,,,0.00,pywws,2013-08-06 18:44:00,
2013-08-07 04:54:00,55.9,54.2,29.95,SW,225,0.0,0.0,94,0.00,,,0.00,pywws,2013-08-06 18:54:00,
2013-08-07 05:03:00,55.9,54.2,29.95,SW,225,0.0,0.0,94,0.00,,,0.00,pywws,2013-08-06 19:03:00,
2013-08-07 05:14:00,55.8,53.8,29.96,SW,225,0.0,0.0,93,0.00,,,0.00,pywws,2013-08-06 19:14:00,
2013-08-07 05:24:00,55.6,53.9,29.95,West,270,0.0,0.0,94,0.00,,,0.00,pywws,2013-08-06 19:24:00,
2013-08-07 05:34:00,55.2,53.5,29.96,West,270,0.0,0.0,94,0.00,,,0.00,pywws,2013-08-06 19:34:00,
2013-08-07 05:44:00,55.2,53.5,29.96,SW,225,0.0,0.7,94,0.00,,,0.00,pywws,2013-08-06 19:44:00,
2013-08-07 05:54:00,55.0,53.6,29.96,SW,225,0.0,0.0,95,0.00,,,0.00,pywws,2013-08-06 19:54:00,
2013-08-07 06:03:00,55.0,53.6,29.96,SW,225,0.0,0.0,95,0.00,,,0.00,pywws,2013-08-06 20:03:00,
2013-08-07 06:14:00,55.0,53.6,29.96,SW,225,0.0,0.0,95,0.00,,,0.00,pywws,2013-08-06 20:14:00,
2013-08-07 06:24:00,54.9,53.7,29.96,SW,225,0.0,0.0,96,0.00,,,0.00,pywws,2013-08-06 20:24:00,
2013-08-07 06:34:00,54.9,53.7,29.97,West,270,0.0,0.0,96,0.00,,,0.00,pywws,2013-08-06 20:34:00,
2013-08-07 06:35:00,54.9,53.7,29.96,West,270,0.0,0.0,96,0.00,,,0.00,pywws,2013-08-06 20:35:00,
2013-08-07 06:44:00,54.9,53.7,29.97,West,270,0.7,1.6,96,0.00,,,0.00,pywws,2013-08-06 20:44:00,
2013-08-07 06:54:00,55.0,54.2,29.98,West,270,0.0,0.7,97,0.00,,,0.00,pywws,2013-08-06 20:54:00,
2013-08-07 07:03:00,55.4,54.6,29.98,SW,225,0.0,0.0,97,0.00,,,0.00,pywws,2013-08-06 21:03:00,
2013-08-07 07:14:00,55.9,55.1,29.98,SW,225,0.0,0.0,97,0.00,,,0.00,pywws,2013-08-06 21:14:00,
2013-08-07 07:24:00,57.2,56.1,29.98,NE,45,2.2,3.1,96,0.00,,,0.00,pywws,2013-08-06 21:24:00,
2013-08-07 07:34:00,59.4,57.6,29.99,West,270,0.0,0.0,94,0.00,,,0.00,pywws,2013-08-06 21:34:00,
2013-08-07 07:44:00,62.4,58.2,30.00,SE,135,0.0,0.7,86,0.00,,,0.00,pywws,2013-08-06 21:44:00,
2013-08-07 07:54:00,63.7,56.3,30.00,NE,45,2.2,3.8,77,0.00,,,0.00,pywws,2013-08-06 21:54:00,
2013-08-07 08:03:00,63.9,55.4,30.00,NE,45,0.0,0.0,74,0.00,,,0.00,pywws,2013-08-06 22:03:00,
2013-08-07 08:14:00,65.1,56.2,30.00,North,0,0.7,1.6,73,0.00,,,0.00,pywws,2013-08-06 22:14:00,
2013-08-07 08:24:00,67.1,57.0,30.00,East,90,1.6,3.1,70,0.00,,,0.00,pywws,2013-08-06 22:24:00,
2013-08-07 08:34:00,67.1,57.0,30.01,North,0,1.6,3.1,70,0.00,,,0.00,pywws,2013-08-06 22:34:00,
2013-08-07 08:44:00,69.1,58.1,30.01,NE,45,1.6,3.8,68,0.00,,,0.00,pywws,2013-08-06 22:44:00,
2013-08-07 08:54:00,70.2,58.7,30.00,NE,45,3.8,4.5,67,0.00,,,0.00,pywws,2013-08-06 22:54:00,
2013-08-07 09:03:00,70.7,59.2,30.01,NE,45,0.7,2.2,67,0.00,,,0.00,pywws,2013-08-06 23:03:00,
2013-08-07 09:14:00,73.2,60.7,30.00,NE,45,0.0,1.6,65,0.00,,,0.00,pywws,2013-08-06 23:14:00,
2013-08-07 09:24:00,73.2,59.9,30.00,NNE,22,3.8,6.0,63,0.00,,,0.00,pywws,2013-08-06 23:24:00,
2013-08-07 09:34:00,72.9,59.5,30.00,North,0,3.1,5.4,63,0.00,,,0.00,pywws,2013-08-06 23:34:00,
2013-08-07 09:44:00,74.5,61.5,30.00,North,0,2.2,3.8,64,0.00,,,0.00,pywws,2013-08-06 23:44:00,
2013-08-07 09:54:00,76.6,62.2,30.00,NE,45,3.8,5.4,61,0.00,,,0.00,pywws,2013-08-06 23:54:00,
2013-08-07 10:03:00,77.7,61.3,30.00,NE,45,2.2,4.5,57,0.00,,,0.00,pywws,2013-08-07 00:03:00,
2013-08-07 10:14:00,79.2,61.6,30.00,North,0,3.8,6.9,55,0.00,,,0.00,pywws,2013-08-07 00:14:00,
2013-08-07 10:24:00,79.9,61.7,30.00,NE,45,3.8,6.0,54,0.00,,,0.00,pywws,2013-08-07 00:24:00,
2013-08-07 10:34:00,80.6,61.3,29.99,NE,45,4.5,6.9,52,0.00,,,0.00,pywws,2013-08-07 00:34:00,
2013-08-07 10:44:00,80.4,61.2,29.99,NNW,338,5.4,8.3,52,0.00,,,0.00,pywws,2013-08-07 00:44:00,
2013-08-07 10:54:00,80.8,60.9,29.98,North,0,6.0,9.2,51,0.00,,,0.00,pywws,2013-08-07 00:54:00,
2013-08-07 11:03:00,81.1,60.7,29.98,NE,45,8.3,9.8,50,0.00,,,0.00,pywws,2013-08-07 01:03:00,
2013-08-07 11:14:00,81.9,60.8,29.98,North,0,3.1,3.8,49,0.00,,,0.00,pywws,2013-08-07 01:14:00,
2013-08-07 11:24:00,81.7,60.1,29.97,East,90,3.1,6.0,48,0.00,,,0.00,pywws,2013-08-07 01:24:00,
2013-08-07 11:34:00,82.2,60.5,29.97,NE,45,4.5,6.0,48,0.00,,,0.00,pywws,2013-08-07 01:34:00,
2013-08-07 11:44:00,81.1,59.6,29.96,NE,45,6.0,7.6,48,0.00,,,0.00,pywws,2013-08-07 01:44:00,
2013-08-07 11:54:00,82.6,60.3,29.96,NE,45,6.9,9.8,47,0.00,,,0.00,pywws,2013-08-07 01:54:00,
2013-08-07 12:03:00,82.4,60.1,29.95,NE,45,3.8,5.4,47,0.00,,,0.00,pywws,2013-08-07 02:03:00,
2013-08-07 12:14:00,82.8,60.4,29.94,NE,45,7.6,11.4,47,0.00,,,0.00,pywws,2013-08-07 02:14:00,
2013-08-07 12:24:00,82.4,60.7,29.93,NE,45,6.0,9.8,48,0.00,,,0.00,pywws,2013-08-07 02:24:00,
2013-08-07 12:34:00,84.7,61.6,29.93,West,270,0.7,2.2,46,0.00,,,0.00,pywws,2013-08-07 02:34:00,
2013-08-07 12:44:00,83.7,60.7,29.92,NE,45,5.4,7.6,46,0.00,,,0.00,pywws,2013-08-07 02:44:00,
2013-08-07 12:54:00,83.8,60.2,29.91,NE,45,1.6,3.8,45,0.00,,,0.00,pywws,2013-08-07 02:54:00,
2013-08-07 13:03:00,85.8,61.4,29.91,NE,45,6.0,7.6,44,0.00,,,0.00,pywws,2013-08-07 03:03:00,
2013-08-07 13:14:00,85.1,61.3,29.90,NE,45,3.1,6.0,45,0.00,,,0.00,pywws,2013-08-07 03:14:00,
2013-08-07 13:24:00,84.6,60.8,29.90,East,90,3.1,5.4,45,0.00,,,0.00,pywws,2013-08-07 03:24:00,
2013-08-07 13:34:00,84.2,59.9,29.89,NW,315,2.2,3.8,44,0.00,,,0.00,pywws,2013-08-07 03:34:00,
2013-08-07 13:44:00,84.7,59.7,29.88,NE,45,3.8,5.4,43,0.00,,,0.00,pywws,2013-08-07 03:44:00,
2013-08-07 13:54:00,84.6,58.9,29.88,NE,45,6.0,9.8,42,0.00,,,0.00,pywws,2013-08-07 03:54:00,
2013-08-07 14:03:00,83.8,59.6,29.87,NE,45,4.5,8.3,44,0.00,,,0.00,pywws,2013-08-07 04:03:00,
2013-08-07 14:05:00,84.2,57.9,29.87,SE,135,4.5,7.6,41,0.00,,,0.00,pywws,2013-08-07 04:05:00,
2013-08-07 14:06:00,84.2,57.9,29.87,East,90,2.2,3.8,41,0.00,,,0.00,pywws,2013-08-07 04:06:00,
2013-08-07 14:07:00,84.4,58.1,29.87,NE,45,2.2,3.8,41,0.00,,,0.00,pywws,2013-08-07 04:07:00,
2013-08-07 14:08:00,84.9,58.6,29.87,NE,45,3.8,5.4,41,0.00,,,0.00,pywws,2013-08-07 04:08:00,
2013-08-07 14:14:00,85.3,58.2,29.86,WNW,292,3.8,5.4,40,0.00,,,0.00,pywws,2013-08-07 04:14:00,
2013-08-07 14:24:00,85.8,58.7,29.86,NE,45,3.8,5.4,40,0.00,,,0.00,pywws,2013-08-07 04:24:00,
2013-08-07 14:34:00,84.9,59.2,29.85,NE,45,1.6,3.1,42,0.00,,,0.00,pywws,2013-08-07 04:34:00,
2013-08-07 14:44:00,85.5,57.6,29.85,NE,45,3.1,6.0,39,0.00,,,0.00,pywws,2013-08-07 04:44:00,
2013-08-07 14:54:00,84.6,56.8,29.85,NE,45,5.4,9.8,39,0.00,,,0.00,pywws,2013-08-07 04:54:00,
2013-08-07 15:03:00,86.0,58.1,29.85,NE,45,3.1,6.0,39,0.00,,,0.00,pywws,2013-08-07 05:03:00,
2013-08-07 15:14:00,86.5,59.3,29.85,North,0,0.0,1.6,40,0.00,,,0.00,pywws,2013-08-07 05:14:00,
2013-08-07 15:24:00,85.5,57.6,29.85,East,90,0.7,2.2,39,0.00,,,0.00,pywws,2013-08-07 05:24:00,
2013-08-07 15:34:00,85.5,59.0,29.85,NNE,22,0.0,0.7,41,0.00,,,0.00,pywws,2013-08-07 05:34:00,
2013-08-07 15:44:00,86.9,58.2,29.84,North,0,6.0,7.6,38,0.00,,,0.00,pywws,2013-08-07 05:44:00,
2013-08-07 15:54:00,85.1,58.0,29.85,East,90,3.1,5.4,40,0.00,,,0.00,pywws,2013-08-07 05:54:00,
2013-08-07 16:03:00,82.9,56.8,29.84,NE,45,3.1,4.5,41,0.00,,,0.00,pywws,2013-08-07 06:03:00,
2013-08-07 16:14:00,84.0,57.8,29.84,NE,45,3.8,6.0,41,0.00,,,0.00,pywws,2013-08-07 06:14:00,
2013-08-07 16:24:00,84.0,57.8,29.84,NE,45,3.8,6.0,41,0.00,,,0.00,pywws,2013-08-07 06:24:00,
2013-08-07 16:34:00,81.7,55.7,29.84,North,0,1.6,3.1,41,0.00,,,0.00,pywws,2013-08-07 06:34:00,
2013-08-07 16:44:00,82.6,58.4,29.85,NE,45,0.0,0.7,44,0.00,,,0.00,pywws,2013-08-07 06:44:00,
2013-08-07 16:54:00,83.3,59.7,29.85,North,0,0.7,2.2,45,0.00,,,0.00,pywws,2013-08-07 06:54:00,
2013-08-07 17:03:00,83.3,60.3,29.85,North,0,0.7,2.2,46,0.00,,,0.00,pywws,2013-08-07 07:03:00,
2013-08-07 17:14:00,77.4,57.2,29.85,NE,45,3.1,3.8,50,0.00,,,0.00,pywws,2013-08-07 07:14:00,
2013-08-07 17:24:00,73.0,56.4,29.85,South,180,0.0,0.7,56,0.00,,,0.00,pywws,2013-08-07 07:24:00,
2013-08-07 17:34:00,71.1,56.5,29.86,SW,225,0.0,0.7,60,0.00,,,0.00,pywws,2013-08-07 07:34:00,
2013-08-07 17:44:00,69.8,55.7,29.86,SW,225,0.0,0.7,61,0.00,,,0.00,pywws,2013-08-07 07:44:00,
2013-08-07 17:54:00,69.1,55.9,29.87,SW,225,0.0,0.7,63,0.00,,,0.00,pywws,2013-08-07 07:54:00,
2013-08-07 18:03:00,68.2,55.5,29.87,West,270,0.0,0.7,64,0.00,,,0.00,pywws,2013-08-07 08:03:00,
2013-08-07 18:14:00,67.6,55.4,29.87,SW,225,0.7,2.2,65,0.00,,,0.00,pywws,2013-08-07 08:14:00,
2013-08-07 18:24:00,66.9,55.2,29.88,SW,225,0.7,1.6,66,0.00,,,0.00,pywws,2013-08-07 08:24:00,
2013-08-07 18:34:00,66.4,55.1,29.87,SW,225,0.7,1.6,67,0.00,,,0.00,pywws,2013-08-07 08:34:00,
2013-08-07 18:44:00,65.8,55.0,29.88,SW,225,0.0,0.0,68,0.00,,,0.00,pywws,2013-08-07 08:44:00,
2013-08-07 18:54:00,65.5,54.2,29.88,SW,225,0.0,0.7,67,0.00,,,0.00,pywws,2013-08-07 08:54:00,
2013-08-07 19:03:00,65.7,54.4,29.88,East,90,0.0,0.7,67,0.00,,,0.00,pywws,2013-08-07 09:03:00,
2013-08-07 19:14:00,65.5,54.6,29.88,South,180,0.0,1.6,68,0.00,,,0.00,pywws,2013-08-07 09:14:00,
2013-08-07 19:24:00,64.9,54.5,29.89,South,180,0.0,0.7,69,0.00,,,0.00,pywws,2013-08-07 09:24:00,
2013-08-07 19:34:00,64.8,54.3,29.89,West,270,0.0,0.0,69,0.00,,,0.00,pywws,2013-08-07 09:34:00,
2013-08-07 19:44:00,64.4,54.0,29.89,West,270,0.0,0.7,69,0.00,,,0.00,pywws,2013-08-07 09:44:00,
2013-08-07 19:54:00,63.7,54.1,29.90,West,270,0.7,1.6,71,0.00,,,0.00,pywws,2013-08-07 09:54:00,
2013-08-07 20:03:00,63.3,53.8,29.90,South,180,0.0,0.0,71,0.00,,,0.00,pywws,2013-08-07 10:03:00,
2013-08-07 20:14:00,63.0,53.4,29.91,West,270,0.0,0.0,71,0.00,,,0.00,pywws,2013-08-07 10:14:00,
2013-08-07 20:24:00,62.4,53.3,29.91,SW,225,0.0,1.6,72,0.00,,,0.00,pywws,2013-08-07 10:24:00,
2013-08-07 20:34:00,62.1,52.9,29.91,West,270,0.0,0.7,72,0.00,,,0.00,pywws,2013-08-07 10:34:00,
2013-08-07 20:43:00,61.5,52.4,29.91,SW,225,0.0,0.0,72,0.00,,,0.00,pywws,2013-08-07 10:43:00,
2013-08-07 20:54:00,61.2,52.1,29.91,SW,225,0.0,0.0,72,0.00,,,0.00,pywws,2013-08-07 10:54:00,
2013-08-07 21:03:00,61.0,52.3,29.92,SW,225,0.0,0.0,73,0.00,,,0.00,pywws,2013-08-07 11:03:00,
2013-08-07 21:14:00,60.8,52.1,29.91,West,270,0.0,1.6,73,0.00,,,0.00,pywws,2013-08-07 11:14:00,
2013-08-07 21:24:00,60.6,52.6,29.92,West,270,0.0,0.0,75,0.00,,,0.00,pywws,2013-08-07 11:24:00,
2013-08-07 21:34:00,60.4,52.8,29.92,West,270,0.0,1.6,76,0.00,,,0.00,pywws,2013-08-07 11:34:00,
2013-08-07 21:44:00,60.3,52.7,29.92,SW,225,0.7,1.6,76,0.00,,,0.00,pywws,2013-08-07 11:44:00,
2013-08-07 21:54:00,60.1,52.8,29.92,West,270,0.0,0.0,77,0.00,,,0.00,pywws,2013-08-07 11:54:00,
2013-08-07 22:03:00,59.9,52.7,29.92,West,270,0.0,0.7,77,0.00,,,0.00,pywws,2013-08-07 12:03:00,
2013-08-07 22:14:00,59.7,52.8,29.92,SW,225,0.7,0.7,78,0.00,,,0.00,pywws,2013-08-07 12:14:00,
2013-08-07 22:23:00,59.5,52.7,29.92,SW,225,0.0,0.0,78,0.00,,,0.00,pywws,2013-08-07 12:23:00,
2013-08-07 22:34:00,59.4,52.5,29.93,SW,225,0.0,0.7,78,0.00,,,0.00,pywws,2013-08-07 12:34:00,
2013-08-07 22:44:00,59.2,52.7,29.92,SW,225,0.0,0.7,79,0.00,,,0.00,pywws,2013-08-07 12:44:00,
2013-08-07 22:54:00,59.5,53.4,29.92,SW,225,0.0,0.0,80,0.00,,,0.00,pywws,2013-08-07 12:54:00,
2013-08-07 23:03:00,59.5,53.0,29.92,SW,225,0.7,1.6,79,0.00,,,0.00,pywws,2013-08-07 13:03:00,
2013-08-07 23:14:00,59.2,52.7,29.92,SW,225,0.7,1.6,79,0.00,,,0.00,pywws,2013-08-07 13:14:00,
2013-08-07 23:23:00,59.0,52.5,29.92,West,270,0.0,0.0,79,0.00,,,0.00,pywws,2013-08-07 13:23:00,
2013-08-07 23:34:00,58.8,53.0,29.92,West,270,0.0,0.0,81,0.00,,,0.00,pywws,2013-08-07 13:34:00,
2013-08-07 23:44:00,58.6,52.8,29.93,West,270,0.0,0.7,81,0.00,,,0.00,pywws,2013-08-07 13:44:00,
2013-08-07 23:54:00,58.5,52.6,29.93,West,270,0.0,0.0,81,0.00,,,0.00,pywws,2013-08-07 13:54:00,